createdAt,value
2017-06-14T00:01:48.377Z,9.65
2017-06-14T00:04:17.355Z,14.70
2017-06-14T00:06:45.509Z,10.27
2017-06-14T00:09:13.672Z,9.98
2017-06-14T00:11:41.844Z,9.63
2017-06-14T00:14:10.022Z,12.57
2017-06-14T00:16:38.197Z,10.05
2017-06-14T00:19:06.597Z,8.60
2017-06-14T00:21:34.750Z,13.75
2017-06-14T00:24:02.923Z,10.48
2017-06-14T00:26:31.127Z,18.55
2017-06-14T00:28:59.274Z,9.70
2017-06-14T00:31:27.438Z,9.55
2017-06-14T00:33:55.622Z,10.68
2017-06-14T00:36:23.811Z,10.32
2017-06-14T00:38:51.985Z,10.40
2017-06-14T00:41:20.173Z,11.48
2017-06-14T00:43:48.347Z,16.10
2017-06-14T00:46:16.518Z,9.88
2017-06-14T00:48:44.694Z,15.07
2017-06-14T00:51:12.865Z,10.38
2017-06-14T00:53:41.035Z,11.77
2017-06-14T00:56:09.241Z,16.33
2017-06-14T00:58:38.184Z,13.27
2017-06-14T01:01:06.340Z,14.23
2017-06-14T01:03:34.639Z,11.45
2017-06-14T01:06:02.806Z,10.82
2017-06-14T01:08:30.975Z,11.10
2017-06-14T01:10:59.522Z,10.65
2017-06-14T01:13:28.438Z,13.13
2017-06-14T01:15:56.590Z,10.88
2017-06-14T01:18:25.533Z,14.38
2017-06-14T01:20:53.686Z,9.75
2017-06-14T01:23:21.866Z,15.75
2017-06-14T01:25:50.068Z,10.45
2017-06-14T01:28:18.220Z,12.75
2017-06-14T01:30:46.417Z,8.82
2017-06-14T01:33:14.589Z,9.50
2017-06-14T01:35:42.738Z,11.65
2017-06-14T01:38:10.889Z,10.52
2017-06-14T01:40:39.834Z,15.20
2017-06-14T01:43:07.999Z,13.05
2017-06-14T01:45:36.141Z,9.50
2017-06-14T01:48:04.339Z,8.63
2017-06-14T01:50:32.503Z,9.63
2017-06-14T01:53:00.650Z,7.60
2017-06-14T01:55:29.605Z,8.98
2017-06-14T01:57:57.764Z,7.78
2017-06-14T02:00:25.910Z,9.15
2017-06-14T02:02:54.084Z,7.45
2017-06-14T02:05:22.248Z,7.12
2017-06-14T02:07:50.398Z,7.97
2017-06-14T02:10:18.597Z,7.93
2017-06-14T02:12:46.769Z,8.20
2017-06-14T02:15:14.941Z,10.63
2017-06-14T02:17:43.149Z,7.72
2017-06-14T02:20:11.305Z,15.55
2017-06-14T02:22:39.469Z,7.30
2017-06-14T02:25:07.667Z,9.15
2017-06-14T02:27:35.817Z,7.78
2017-06-14T02:30:03.989Z,7.70
2017-06-14T02:32:32.952Z,7.50
2017-06-14T02:35:01.106Z,10.25
2017-06-14T02:37:29.273Z,6.78
2017-06-14T02:39:57.476Z,7.20
2017-06-14T02:42:25.639Z,10.00
2017-06-14T02:44:53.787Z,6.15
2017-06-14T02:47:21.979Z,9.07
2017-06-14T02:49:50.171Z,10.05
2017-06-14T02:52:18.335Z,12.77
2017-06-14T02:54:46.946Z,8.00
2017-06-14T02:57:15.900Z,8.68
2017-06-14T02:59:44.060Z,9.07
2017-06-14T03:02:12.267Z,6.65
2017-06-14T03:04:40.412Z,6.80
2017-06-14T03:07:08.621Z,9.38
2017-06-14T03:09:36.812Z,9.07
2017-06-14T03:12:05.734Z,5.35
2017-06-14T03:14:33.882Z,8.88
2017-06-14T03:17:02.859Z,6.55
2017-06-14T03:19:31.025Z,9.35
2017-06-14T03:21:59.177Z,6.78
2017-06-14T03:24:27.381Z,6.40
2017-06-14T03:26:55.535Z,8.88
2017-06-14T03:29:23.697Z,7.00
2017-06-14T03:31:51.882Z,8.45
2017-06-14T03:34:20.030Z,7.30
2017-06-14T03:36:48.205Z,7.37
2017-06-14T03:39:16.383Z,5.60
2017-06-14T03:41:44.555Z,7.78
2017-06-14T03:44:12.697Z,7.57
2017-06-14T03:46:41.650Z,7.30
2017-06-14T03:49:09.799Z,7.43
2017-06-14T03:51:37.959Z,7.93
2017-06-14T03:54:06.138Z,7.60
2017-06-14T03:56:34.316Z,10.40
2017-06-14T03:59:02.493Z,8.88
2017-06-14T04:01:30.684Z,7.97
2017-06-14T04:03:58.848Z,7.72
2017-06-14T04:06:26.998Z,9.10
2017-06-14T04:08:56.043Z,8.75
2017-06-14T04:11:24.214Z,9.07
2017-06-14T04:13:52.361Z,7.35
2017-06-14T04:16:20.578Z,7.03
2017-06-14T04:18:48.722Z,10.55
2017-06-14T04:21:16.888Z,8.23
2017-06-14T04:23:45.067Z,7.12
2017-06-14T04:26:13.230Z,8.05
2017-06-14T04:28:41.396Z,10.95
2017-06-14T04:31:09.613Z,7.87
2017-06-14T04:33:37.754Z,8.63
2017-06-14T04:36:05.925Z,7.72
2017-06-14T04:38:34.125Z,7.22
2017-06-14T04:41:02.270Z,8.05
2017-06-14T04:43:30.436Z,7.40
2017-06-14T04:45:58.624Z,7.50
2017-06-14T04:48:26.794Z,7.55
2017-06-14T04:50:54.961Z,7.93
2017-06-14T04:53:23.137Z,7.43
2017-06-14T04:55:51.303Z,7.82
2017-06-14T04:58:19.510Z,6.07
2017-06-14T05:00:47.702Z,9.30
2017-06-14T05:03:15.871Z,9.95
2017-06-14T05:05:44.040Z,9.50
2017-06-14T05:08:12.237Z,9.02
2017-06-14T05:10:40.408Z,12.85
2017-06-14T05:13:08.571Z,6.70
2017-06-14T05:15:36.766Z,7.50
2017-06-14T05:18:04.912Z,6.05
2017-06-14T05:20:33.061Z,5.72
2017-06-14T05:23:01.241Z,9.30
2017-06-14T05:25:29.418Z,12.43
2017-06-14T05:27:57.591Z,8.93
2017-06-14T05:30:25.785Z,7.65
2017-06-14T05:32:53.933Z,5.30
2017-06-14T05:35:22.086Z,6.80
2017-06-14T05:37:51.066Z,16.10
2017-06-14T05:40:19.219Z,9.82
2017-06-14T05:42:47.368Z,4.68
2017-06-14T05:45:15.573Z,4.97
2017-06-14T05:47:43.726Z,5.85
2017-06-14T05:50:11.877Z,7.47
2017-06-14T05:52:40.131Z,6.70
2017-06-14T05:55:09.078Z,5.87
2017-06-14T05:57:37.225Z,5.07
2017-06-14T06:00:05.931Z,7.47
2017-06-14T06:02:34.159Z,4.03
2017-06-14T06:05:03.089Z,5.87
2017-06-14T06:07:31.293Z,4.30
2017-06-14T06:10:00.964Z,4.35
2017-06-14T06:12:29.258Z,8.32
2017-06-14T06:14:57.463Z,5.68
2017-06-14T06:17:25.765Z,7.45
2017-06-14T06:19:54.005Z,5.05
2017-06-14T06:22:22.297Z,4.85
2017-06-14T06:24:51.291Z,4.97
2017-06-14T06:27:19.517Z,5.25
2017-06-14T06:29:47.698Z,4.07
2017-06-14T06:32:15.868Z,4.18
2017-06-14T06:34:44.019Z,8.13
2017-06-14T06:37:12.198Z,4.07
2017-06-14T06:39:40.342Z,5.87
2017-06-14T06:42:09.509Z,5.40
2017-06-14T06:44:38.011Z,5.00
2017-06-14T06:47:07.151Z,4.75
2017-06-14T06:49:36.578Z,4.95
2017-06-14T06:52:05.671Z,5.10
2017-06-14T06:54:34.172Z,7.97
2017-06-14T06:57:02.447Z,8.68
2017-06-14T06:59:30.683Z,6.07
2017-06-14T07:01:58.904Z,5.85
2017-06-14T07:04:27.119Z,4.55
2017-06-14T07:06:55.475Z,5.85
2017-06-14T07:09:23.678Z,9.68
2017-06-14T07:11:51.848Z,7.30
2017-06-14T07:14:20.050Z,7.32
2017-06-14T07:16:48.966Z,4.22
2017-06-14T07:19:17.137Z,5.97
2017-06-14T07:21:45.337Z,8.20
2017-06-14T07:24:13.504Z,6.12
2017-06-14T07:26:41.673Z,4.78
2017-06-14T07:29:09.876Z,6.65
2017-06-14T07:31:38.049Z,5.05
2017-06-14T07:34:06.232Z,3.55
2017-06-14T07:36:34.442Z,2.67
2017-06-14T07:39:03.377Z,4.00
2017-06-14T07:41:31.530Z,10.43
2017-06-14T07:43:59.735Z,12.95
2017-06-14T07:46:27.896Z,4.22
2017-06-14T07:48:56.042Z,36.83
2017-06-14T07:51:24.241Z,79.12
2017-06-14T07:53:52.410Z,89.25
2017-06-14T07:56:20.607Z,18.42
2017-06-14T07:58:48.786Z,20.23
2017-06-14T08:01:16.934Z,4.53
2017-06-14T08:03:45.096Z,4.00
2017-06-14T08:06:13.303Z,7.87
2017-06-14T08:08:41.459Z,3.00
2017-06-14T08:11:09.636Z,5.30
2017-06-14T08:13:37.835Z,3.87
2017-06-14T08:16:05.991Z,13.43
2017-06-14T08:18:34.137Z,7.37
2017-06-14T08:21:03.173Z,17.10
2017-06-14T08:23:31.319Z,3.10
2017-06-14T08:25:59.477Z,1.83
2017-06-14T08:28:27.672Z,17.20
2017-06-14T08:30:55.828Z,13.93
2017-06-14T08:33:24.741Z,2.47
2017-06-14T08:35:52.945Z,2.33
2017-06-14T08:38:21.166Z,3.83
2017-06-14T08:40:49.525Z,2.67
2017-06-14T08:43:18.126Z,2.50
2017-06-14T08:45:46.837Z,2.03
2017-06-14T08:48:15.211Z,2.80
2017-06-14T08:50:44.290Z,2.37
2017-06-14T08:53:12.530Z,6.80
2017-06-14T08:55:41.742Z,5.57
2017-06-14T08:58:10.921Z,2.17
2017-06-14T09:00:39.288Z,2.80
2017-06-14T09:03:07.537Z,3.63
2017-06-14T09:05:35.742Z,2.90
2017-06-14T09:08:04.475Z,19.33
2017-06-14T09:10:33.681Z,44.20
2017-06-14T09:13:02.279Z,2.63
2017-06-14T09:15:30.609Z,4.30
2017-06-14T09:17:58.893Z,5.83
2017-06-14T09:20:27.133Z,2.43
2017-06-14T09:22:55.355Z,3.63
2017-06-14T09:25:23.785Z,4.27
2017-06-14T09:27:52.362Z,5.53
2017-06-14T09:30:20.645Z,2.40
2017-06-14T09:32:48.949Z,6.20
2017-06-14T09:35:17.478Z,5.00
2017-06-14T09:37:45.801Z,2.43
2017-06-14T09:40:14.050Z,2.43
2017-06-14T09:42:42.348Z,2.00
2017-06-14T09:45:10.636Z,7.10
2017-06-14T09:47:38.817Z,3.33
2017-06-14T09:50:07.392Z,2.23
2017-06-14T09:52:35.817Z,2.63
2017-06-14T09:55:03.993Z,2.00
2017-06-14T09:57:32.649Z,3.10
2017-06-14T10:00:00.950Z,2.73
2017-06-14T10:02:29.168Z,2.63
2017-06-14T10:04:57.545Z,3.20
2017-06-14T10:07:26.464Z,4.63
2017-06-14T10:09:54.609Z,2.63
2017-06-14T10:12:23.545Z,2.87
2017-06-14T10:14:51.702Z,4.63
2017-06-14T10:17:20.022Z,3.13
2017-06-14T10:19:48.222Z,2.60
2017-06-14T10:22:17.201Z,2.80
2017-06-14T10:24:45.479Z,1.97
2017-06-14T10:27:13.802Z,3.03
2017-06-14T10:29:41.989Z,1.77
2017-06-14T10:32:10.138Z,2.37
2017-06-14T10:34:38.322Z,2.33
2017-06-14T10:37:06.484Z,2.17
2017-06-14T10:39:34.657Z,2.80
2017-06-14T10:42:03.033Z,3.43
2017-06-14T10:44:31.421Z,2.57
2017-06-14T10:46:59.604Z,2.33
2017-06-14T10:49:27.906Z,2.20
2017-06-14T10:51:56.177Z,3.77
2017-06-14T10:54:24.340Z,2.53
2017-06-14T10:56:52.537Z,3.80
2017-06-14T10:59:20.681Z,1.80
2017-06-14T11:01:48.853Z,4.50
2017-06-14T11:04:17.055Z,2.83
2017-06-14T11:06:45.209Z,2.80
2017-06-14T11:09:13.353Z,1.90
2017-06-14T11:11:42.305Z,1.40
2017-06-14T11:14:10.470Z,1.70
2017-06-14T11:16:38.617Z,2.43
2017-06-14T11:19:06.798Z,2.33
2017-06-14T11:21:34.957Z,2.37
2017-06-14T11:24:03.141Z,2.27
2017-06-14T11:26:31.334Z,1.70
2017-06-14T11:28:59.494Z,2.60
2017-06-14T11:31:27.656Z,1.73
2017-06-14T11:33:55.848Z,1.70
2017-06-14T11:36:24.009Z,2.70
2017-06-14T11:38:52.163Z,3.50
2017-06-14T11:41:20.365Z,2.40
2017-06-14T11:43:48.510Z,2.47
2017-06-14T11:46:16.672Z,2.70
2017-06-14T11:48:44.854Z,2.97
2017-06-14T11:51:13.035Z,2.50
2017-06-14T11:53:41.182Z,5.27
2017-06-14T11:56:09.380Z,2.27
2017-06-14T11:58:38.312Z,2.77
2017-06-14T12:01:06.461Z,2.07
2017-06-14T12:03:34.666Z,2.57
2017-06-14T12:06:02.820Z,5.40
2017-06-14T12:08:30.988Z,3.07
2017-06-14T12:10:59.197Z,2.93
2017-06-14T12:13:27.368Z,2.53
2017-06-14T12:15:55.516Z,3.07
2017-06-14T12:18:23.721Z,2.23
2017-06-14T12:20:51.896Z,2.80
2017-06-14T12:23:20.079Z,3.63
2017-06-14T12:25:48.260Z,2.27
2017-06-14T12:28:16.406Z,2.20
2017-06-14T12:30:44.564Z,2.58
2017-06-14T12:33:12.750Z,2.37
2017-06-14T12:35:40.925Z,4.10
2017-06-14T12:38:09.086Z,2.70
2017-06-14T12:40:37.298Z,2.60
2017-06-14T12:43:05.481Z,2.55
2017-06-14T12:45:33.644Z,3.75
2017-06-14T12:48:01.840Z,2.62
2017-06-14T12:50:30.011Z,3.60
2017-06-14T12:52:58.185Z,2.50
2017-06-14T12:55:26.373Z,2.47
2017-06-14T12:57:55.312Z,3.90
2017-06-14T13:00:23.489Z,3.62
2017-06-14T13:02:51.688Z,3.55
2017-06-14T13:05:19.847Z,6.07
2017-06-14T13:07:48.033Z,2.85
2017-06-14T13:10:16.214Z,3.35
2017-06-14T13:12:44.409Z,3.22
2017-06-14T13:15:12.561Z,2.75
2017-06-14T13:17:40.773Z,3.00
2017-06-14T13:20:09.698Z,2.90
2017-06-14T13:22:37.853Z,3.37
2017-06-14T13:25:06.054Z,2.75
2017-06-14T13:27:34.214Z,2.95
2017-06-14T13:30:02.391Z,3.90
2017-06-14T13:32:30.578Z,4.00
2017-06-14T13:34:58.745Z,3.92
2017-06-14T13:37:26.897Z,2.50
2017-06-14T13:39:55.876Z,2.70
2017-06-14T13:42:24.841Z,3.45
2017-06-14T13:44:53.011Z,3.05
2017-06-14T13:47:21.207Z,2.85
2017-06-14T13:49:49.376Z,2.97
2017-06-14T13:52:17.533Z,2.33
2017-06-14T13:54:45.732Z,2.55
2017-06-14T13:57:13.909Z,2.78
2017-06-14T13:59:42.058Z,2.60
2017-06-14T14:02:10.243Z,2.65
2017-06-14T14:04:38.416Z,2.33
2017-06-14T14:07:06.571Z,2.53
2017-06-14T14:09:34.758Z,2.60
2017-06-14T14:12:02.921Z,2.87
2017-06-14T14:14:31.078Z,4.70
2017-06-14T14:16:59.288Z,2.50
2017-06-14T14:19:27.439Z,4.03
2017-06-14T14:21:55.648Z,2.60
2017-06-14T14:24:23.840Z,3.47
2017-06-14T14:26:52.006Z,5.45
2017-06-14T14:29:20.161Z,4.37
2017-06-14T14:31:48.360Z,3.30
2017-06-14T14:34:16.533Z,2.55
2017-06-14T14:36:44.690Z,4.10
2017-06-14T14:39:12.893Z,4.00
2017-06-14T14:41:41.067Z,2.60
2017-06-14T14:44:09.228Z,3.70
2017-06-14T14:46:37.438Z,2.53
2017-06-14T14:49:05.589Z,2.80
2017-06-14T14:51:33.760Z,5.05
2017-06-14T14:54:01.942Z,3.55
2017-06-14T14:56:30.108Z,3.95
2017-06-14T14:58:58.270Z,4.93
2017-06-14T15:01:27.217Z,3.00
2017-06-14T15:03:55.371Z,6.32
2017-06-14T15:06:23.561Z,3.42
2017-06-14T15:08:51.768Z,3.33
2017-06-14T15:11:19.940Z,5.32
2017-06-14T15:13:48.114Z,3.58
2017-06-14T15:16:16.314Z,4.82
2017-06-14T15:18:44.485Z,4.20
2017-06-14T15:21:13.420Z,4.15
2017-06-14T15:23:41.597Z,3.80
2017-06-14T15:26:09.774Z,2.62
2017-06-14T15:28:37.957Z,3.67
2017-06-14T15:31:06.142Z,2.90
2017-06-14T15:33:34.302Z,3.33
2017-06-14T15:36:02.472Z,2.80
2017-06-14T15:38:30.661Z,3.17
2017-06-14T15:40:58.832Z,4.43
2017-06-14T15:43:27.004Z,3.80
2017-06-14T15:45:55.205Z,4.18
2017-06-14T15:48:24.163Z,3.78
2017-06-14T15:50:52.310Z,4.32
2017-06-14T15:53:20.504Z,6.40
2017-06-14T15:55:48.658Z,4.85
2017-06-14T15:58:16.813Z,3.78
2017-06-14T16:00:45.776Z,4.18
2017-06-14T16:03:13.948Z,3.37
2017-06-14T16:05:42.125Z,6.35
2017-06-14T16:08:10.311Z,5.85
2017-06-14T16:10:38.485Z,5.95
2017-06-14T16:13:06.642Z,3.25
2017-06-14T16:15:34.850Z,3.00
2017-06-14T16:18:03.001Z,3.78
2017-06-14T16:20:31.159Z,3.08
2017-06-14T16:22:59.352Z,3.08
2017-06-14T16:25:28.274Z,3.10
2017-06-14T16:27:56.423Z,3.85
2017-06-14T16:30:25.453Z,3.75
2017-06-14T16:32:53.610Z,3.20
2017-06-14T16:35:21.780Z,3.17
2017-06-14T16:37:49.961Z,4.68
2017-06-14T16:40:18.148Z,6.47
2017-06-14T16:42:46.305Z,9.40
2017-06-14T16:45:14.486Z,3.10
2017-06-14T16:47:42.658Z,6.37
2017-06-14T16:50:10.802Z,4.97
2017-06-14T16:52:38.996Z,6.10
2017-06-14T16:55:07.142Z,4.30
2017-06-14T16:57:35.306Z,3.50
2017-06-14T17:00:03.480Z,3.65
2017-06-14T17:02:31.637Z,5.45
2017-06-14T17:04:59.798Z,11.10
2017-06-14T17:07:28.484Z,5.10
2017-06-14T17:09:56.757Z,10.95
2017-06-14T17:12:24.922Z,3.80
2017-06-14T17:14:53.102Z,4.18
2017-06-14T17:17:21.267Z,4.87
2017-06-14T17:19:49.426Z,6.00
2017-06-14T17:22:18.394Z,6.53
2017-06-14T17:24:46.546Z,29.00
2017-06-14T17:27:14.712Z,4.28
2017-06-14T17:29:42.894Z,6.62
2017-06-14T17:32:11.063Z,5.80
2017-06-14T17:34:39.230Z,9.18
2017-06-14T17:37:07.920Z,6.55
2017-06-14T17:39:36.780Z,3.60
2017-06-14T17:42:04.957Z,6.40
2017-06-14T17:44:33.200Z,4.68
2017-06-14T17:47:02.159Z,3.60
2017-06-14T17:49:30.334Z,6.18
2017-06-14T17:51:58.532Z,6.18
2017-06-14T17:54:26.702Z,4.05
2017-06-14T17:56:54.862Z,3.58
2017-06-14T17:59:23.056Z,5.68
2017-06-14T18:01:51.236Z,3.50
2017-06-14T18:04:19.461Z,5.12
2017-06-14T18:06:47.645Z,3.78
2017-06-14T18:09:15.867Z,3.20
2017-06-14T18:11:44.083Z,3.47
2017-06-14T18:14:12.285Z,3.70
2017-06-14T18:16:40.438Z,3.70
2017-06-14T18:19:08.611Z,4.40
2017-06-14T18:21:36.909Z,3.60
2017-06-14T18:24:05.086Z,6.53
2017-06-14T18:26:33.259Z,4.85
2017-06-14T18:29:01.485Z,5.28
2017-06-14T18:31:30.415Z,8.63
2017-06-14T18:33:58.696Z,8.13
2017-06-14T18:36:26.933Z,6.97
2017-06-14T18:38:55.850Z,5.40
2017-06-14T18:41:24.028Z,4.07
2017-06-14T18:43:52.230Z,5.45
2017-06-14T18:46:20.391Z,5.72
2017-06-14T18:48:48.539Z,5.93
2017-06-14T18:51:16.750Z,5.45
2017-06-14T18:53:44.920Z,5.53
2017-06-14T18:56:13.073Z,5.22
2017-06-14T18:58:41.362Z,6.28
2017-06-14T19:01:09.514Z,4.70
2017-06-14T19:03:37.667Z,7.07
2017-06-14T19:06:06.624Z,7.05
2017-06-14T19:08:34.822Z,7.85
2017-06-14T19:11:03.008Z,7.15
2017-06-14T19:13:31.950Z,5.15
2017-06-14T19:16:00.169Z,4.07
2017-06-14T19:18:29.089Z,8.43
2017-06-14T19:21:02.882Z,5.72
2017-06-14T19:23:31.046Z,7.85
2017-06-14T19:25:59.977Z,7.47
2017-06-14T19:28:28.195Z,6.53
2017-06-14T19:30:56.409Z,6.90
2017-06-14T19:33:24.614Z,5.82
2017-06-14T19:35:53.017Z,5.47
2017-06-14T19:38:21.208Z,5.32
2017-06-14T19:40:49.385Z,6.97
2017-06-14T19:43:17.596Z,5.72
2017-06-14T19:45:45.748Z,5.85
2017-06-14T19:48:14.712Z,5.70
2017-06-14T19:50:42.941Z,7.07
2017-06-14T19:53:11.133Z,10.85
2017-06-14T19:55:39.348Z,9.65
2017-06-14T19:58:07.526Z,12.63
2017-06-14T20:00:35.681Z,13.32
2017-06-14T20:03:03.882Z,11.40
2017-06-14T20:05:32.243Z,12.15
2017-06-14T20:08:00.472Z,10.25
2017-06-14T20:10:28.634Z,11.85
2017-06-14T20:12:56.837Z,12.30
2017-06-14T20:15:24.982Z,8.73
2017-06-14T20:17:53.130Z,9.10
2017-06-14T20:20:21.328Z,8.30
2017-06-14T20:22:49.477Z,8.30
2017-06-14T20:25:17.639Z,9.90
2017-06-14T20:27:45.823Z,10.43
2017-06-14T20:30:13.991Z,9.88
2017-06-14T20:32:42.141Z,9.27
2017-06-14T20:35:11.112Z,11.43
2017-06-14T20:37:39.290Z,10.70
2017-06-14T20:40:07.445Z,10.50
2017-06-14T20:42:35.621Z,9.52
2017-06-14T20:45:03.772Z,9.60
2017-06-14T20:47:31.945Z,10.68
2017-06-14T20:50:00.160Z,12.43
2017-06-14T20:52:28.342Z,11.48
2017-06-14T20:54:56.501Z,12.65
2017-06-14T20:57:24.711Z,10.30
2017-06-14T20:59:52.889Z,11.52
2017-06-14T21:02:21.848Z,12.30
2017-06-14T21:04:50.146Z,11.32
2017-06-14T21:07:19.147Z,15.50
2017-06-14T21:09:48.077Z,11.25
2017-06-14T21:12:16.359Z,12.10
2017-06-14T21:14:44.545Z,11.38
2017-06-14T21:17:12.718Z,12.05
2017-06-14T21:19:40.974Z,11.82
2017-06-14T21:22:09.177Z,13.45
2017-06-14T21:24:37.435Z,12.50
2017-06-14T21:27:05.622Z,9.55
2017-06-14T21:29:33.806Z,11.55
2017-06-14T21:32:02.003Z,12.32
2017-06-14T21:34:30.195Z,14.07
2017-06-14T21:36:59.160Z,14.68
2017-06-14T21:39:27.425Z,13.05
2017-06-14T21:41:55.649Z,12.60
2017-06-14T21:44:24.600Z,13.02
2017-06-14T21:46:52.772Z,13.70
2017-06-14T21:49:20.994Z,13.43
2017-06-14T21:51:49.929Z,13.48
2017-06-14T21:54:18.103Z,13.35
2017-06-14T21:56:46.306Z,14.20
2017-06-14T21:59:14.496Z,12.23
2017-06-14T22:01:43.444Z,12.63
2017-06-14T22:04:11.634Z,13.35
2017-06-14T22:06:39.802Z,11.93
2017-06-14T22:09:07.958Z,11.07
2017-06-14T22:11:36.161Z,13.18
2017-06-14T22:14:04.331Z,11.98
2017-06-14T22:16:32.567Z,12.15
2017-06-14T22:19:02.479Z,14.35
2017-06-14T22:21:30.630Z,13.52
2017-06-14T22:23:58.807Z,12.82
2017-06-14T22:26:27.025Z,12.52
2017-06-14T22:28:55.202Z,10.98
2017-06-14T22:31:23.356Z,12.07
2017-06-14T22:33:51.563Z,11.20
2017-06-14T22:36:19.722Z,13.05
2017-06-14T22:38:47.901Z,13.68
2017-06-14T22:41:16.797Z,14.45
2017-06-14T22:43:44.971Z,14.75
2017-06-14T22:46:13.121Z,14.95
2017-06-14T22:48:41.309Z,14.75
2017-06-14T22:51:09.481Z,13.50
2017-06-14T22:53:37.633Z,13.30
2017-06-14T22:56:05.829Z,11.98
2017-06-14T22:58:34.024Z,14.10
2017-06-14T23:01:02.198Z,13.95
2017-06-14T23:03:30.394Z,14.23
2017-06-14T23:05:58.568Z,13.32
2017-06-14T23:08:27.514Z,14.80
2017-06-14T23:10:55.705Z,14.93
2017-06-14T23:13:23.858Z,13.77
2017-06-14T23:15:52.029Z,15.38
2017-06-14T23:18:20.222Z,16.50
2017-06-14T23:20:48.365Z,15.70
2017-06-14T23:23:16.519Z,16.45
2017-06-14T23:25:44.708Z,17.27
2017-06-14T23:28:13.342Z,13.30
2017-06-14T23:30:41.543Z,15.18
2017-06-14T23:33:09.757Z,13.40
2017-06-14T23:35:38.399Z,11.80
2017-06-14T23:38:06.604Z,13.73
2017-06-14T23:40:34.808Z,11.27
2017-06-14T23:43:02.978Z,10.65
2017-06-14T23:45:31.148Z,10.52
2017-06-14T23:47:59.339Z,11.40
2017-06-14T23:50:28.320Z,10.75
2017-06-14T23:52:56.495Z,10.55
2017-06-14T23:55:24.691Z,11.15
2017-06-14T23:57:53.623Z,9.65
